sensor_id;sensor_type;location;lat;lon;timestamp;P1;durP1;ratioP1;P2;durP2;ratioP2
20966;SDS011;10642;50.682;18.510;2022-12-11T00:01:11;38.50;;;15.40;;
20966;SDS011;10642;50.682;18.510;2022-12-11T00:03:38;38.57;;;15.83;;
20966;SDS011;10642;50.682;18.510;2022-12-11T00:06:09;39.90;;;15.57;;
20966;SDS011;10642;50.682;18.510;2022-12-11T00:08:36;36.80;;;16.87;;
20966;SDS011;10642;50.682;18.510;2022-12-11T00:11:04;33.20;;;15.30;;
20966;SDS011;10642;50.682;18.510;2022-12-11T00:13:31;34.20;;;15.03;;
20966;SDS011;10642;50.682;18.510;2022-12-11T00:15:58;36.97;;;15.10;;
20966;SDS011;10642;50.682;18.510;2022-12-11T00:18:25;32.83;;;15.50;;
20966;SDS011;10642;50.682;18.510;2022-12-11T00:20:52;33.13;;;14.20;;
20966;SDS011;10642;50.682;18.510;2022-12-11T00:23:18;37.20;;;14.57;;
20966;SDS011;10642;50.682;18.510;2022-12-11T00:25:46;30.20;;;13.20;;
20966;SDS011;10642;50.682;18.510;2022-12-11T00:28:14;34.40;;;14.53;;
20966;SDS011;10642;50.682;18.510;2022-12-11T00:30:41;36.37;;;13.73;;
20966;SDS011;10642;50.682;18.510;2022-12-11T00:33:09;34.63;;;14.73;;
20966;SDS011;10642;50.682;18.510;2022-12-11T00:35:40;33.87;;;15.70;;
20966;SDS011;10642;50.682;18.510;2022-12-11T00:38:07;37.83;;;15.93;;
20966;SDS011;10642;50.682;18.510;2022-12-11T00:40:35;38.70;;;16.03;;
20966;SDS011;10642;50.682;18.510;2022-12-11T00:43:02;35.20;;;15.10;;
20966;SDS011;10642;50.682;18.510;2022-12-11T00:45:29;31.00;;;14.73;;
20966;SDS011;10642;50.682;18.510;2022-12-11T00:47:56;35.47;;;15.73;;
20966;SDS011;10642;50.682;18.510;2022-12-11T00:50:23;37.20;;;15.37;;
20966;SDS011;10642;50.682;18.510;2022-12-11T00:52:50;34.97;;;14.57;;
20966;SDS011;10642;50.682;18.510;2022-12-11T00:55:17;33.33;;;14.77;;
20966;SDS011;10642;50.682;18.510;2022-12-11T00:57:43;38.63;;;16.30;;
20966;SDS011;10642;50.682;18.510;2022-12-11T01:00:10;37.87;;;14.20;;
20966;SDS011;10642;50.682;18.510;2022-12-11T01:02:38;36.83;;;16.87;;
20966;SDS011;10642;50.682;18.510;2022-12-11T01:05:05;37.50;;;15.83;;
20966;SDS011;10642;50.682;18.510;2022-12-11T01:07:32;34.97;;;16.47;;
20966;SDS011;10642;50.682;18.510;2022-12-11T01:09:59;33.43;;;14.80;;
20966;SDS011;10642;50.682;18.510;2022-12-11T01:12:44;33.10;;;14.87;;
20966;SDS011;10642;50.682;18.510;2022-12-11T01:15:11;34.43;;;16.13;;
20966;SDS011;10642;50.682;18.510;2022-12-11T01:17:38;40.47;;;16.33;;
20966;SDS011;10642;50.682;18.510;2022-12-11T01:20:05;40.93;;;16.10;;
20966;SDS011;10642;50.682;18.510;2022-12-11T01:22:32;33.40;;;14.90;;
20966;SDS011;10642;50.682;18.510;2022-12-11T01:24:59;32.43;;;14.77;;
20966;SDS011;10642;50.682;18.510;2022-12-11T01:27:26;34.67;;;15.67;;
20966;SDS011;10642;50.682;18.510;2022-12-11T01:29:53;32.17;;;15.23;;
20966;SDS011;10642;50.682;18.510;2022-12-11T01:32:20;32.63;;;15.13;;
20966;SDS011;10642;50.682;18.510;2022-12-11T01:34:47;33.27;;;14.80;;
20966;SDS011;10642;50.682;18.510;2022-12-11T01:37:14;31.03;;;14.83;;
20966;SDS011;10642;50.682;18.510;2022-12-11T01:39:41;30.00;;;14.53;;
20966;SDS011;10642;50.682;18.510;2022-12-11T01:42:09;26.03;;;12.50;;
20966;SDS011;10642;50.682;18.510;2022-12-11T01:47:06;28.37;;;12.40;;
20966;SDS011;10642;50.682;18.510;2022-12-11T01:49:33;27.93;;;12.87;;
20966;SDS011;10642;50.682;18.510;2022-12-11T01:54:27;26.73;;;13.20;;
20966;SDS011;10642;50.682;18.510;2022-12-11T01:56:55;26.87;;;14.00;;
20966;SDS011;10642;50.682;18.510;2022-12-11T01:59:25;27.50;;;13.13;;
20966;SDS011;10642;50.682;18.510;2022-12-11T02:04:19;33.90;;;14.63;;
20966;SDS011;10642;50.682;18.510;2022-12-11T02:06:47;34.60;;;17.17;;
20966;SDS011;10642;50.682;18.510;2022-12-11T02:09:15;31.00;;;14.90;;
20966;SDS011;10642;50.682;18.510;2022-12-11T02:16:55;34.00;;;16.40;;
20966;SDS011;10642;50.682;18.510;2022-12-11T02:21:53;35.90;;;18.17;;
20966;SDS011;10642;50.682;18.510;2022-12-11T02:29:57;41.60;;;20.93;;
20966;SDS011;10642;50.682;18.510;2022-12-11T02:32:35;41.07;;;19.33;;
20966;SDS011;10642;50.682;18.510;2022-12-11T02:35:05;45.37;;;21.33;;
20966;SDS011;10642;50.682;18.510;2022-12-11T02:37:36;43.53;;;19.10;;
20966;SDS011;10642;50.682;18.510;2022-12-11T02:40:04;37.50;;;18.27;;
20966;SDS011;10642;50.682;18.510;2022-12-11T02:42:33;35.43;;;18.47;;
20966;SDS011;10642;50.682;18.510;2022-12-11T02:45:02;35.87;;;17.83;;
20966;SDS011;10642;50.682;18.510;2022-12-11T02:47:29;37.97;;;17.97;;
20966;SDS011;10642;50.682;18.510;2022-12-11T02:49:58;38.63;;;17.73;;
20966;SDS011;10642;50.682;18.510;2022-12-11T02:52:26;31.83;;;15.73;;
20966;SDS011;10642;50.682;18.510;2022-12-11T02:54:56;38.73;;;19.10;;
20966;SDS011;10642;50.682;18.510;2022-12-11T02:57:27;36.27;;;17.27;;
20966;SDS011;10642;50.682;18.510;2022-12-11T02:59:57;35.90;;;15.57;;
20966;SDS011;10642;50.682;18.510;2022-12-11T03:02:24;39.17;;;17.37;;
20966;SDS011;10642;50.682;18.510;2022-12-11T03:04:51;35.33;;;16.17;;
20966;SDS011;10642;50.682;18.510;2022-12-11T03:07:20;42.13;;;18.90;;
20966;SDS011;10642;50.682;18.510;2022-12-11T03:09:49;44.30;;;19.07;;
20966;SDS011;10642;50.682;18.510;2022-12-11T03:12:22;41.43;;;18.53;;
20966;SDS011;10642;50.682;18.510;2022-12-11T03:14:49;40.30;;;18.63;;
20966;SDS011;10642;50.682;18.510;2022-12-11T03:17:18;49.87;;;22.77;;
20966;SDS011;10642;50.682;18.510;2022-12-11T03:19:54;50.90;;;25.60;;
20966;SDS011;10642;50.682;18.510;2022-12-11T03:25:03;59.33;;;26.83;;
20966;SDS011;10642;50.682;18.510;2022-12-11T03:27:35;57.80;;;27.83;;
20966;SDS011;10642;50.682;18.510;2022-12-11T03:30:11;55.73;;;27.23;;
20966;SDS011;10642;50.682;18.510;2022-12-11T03:32:42;53.30;;;24.20;;
20966;SDS011;10642;50.682;18.510;2022-12-11T03:37:50;52.83;;;24.47;;
20966;SDS011;10642;50.682;18.510;2022-12-11T03:40:18;56.87;;;29.20;;
20966;SDS011;10642;50.682;18.510;2022-12-11T03:42:47;45.17;;;21.20;;
20966;SDS011;10642;50.682;18.510;2022-12-11T03:45:16;49.57;;;24.23;;
20966;SDS011;10642;50.682;18.510;2022-12-11T03:47:44;51.77;;;23.47;;
20966;SDS011;10642;50.682;18.510;2022-12-11T03:50:13;53.03;;;23.03;;
20966;SDS011;10642;50.682;18.510;2022-12-11T03:52:41;53.73;;;23.23;;
20966;SDS011;10642;50.682;18.510;2022-12-11T03:55:12;47.23;;;22.00;;
20966;SDS011;10642;50.682;18.510;2022-12-11T03:57:39;54.47;;;22.83;;
20966;SDS011;10642;50.682;18.510;2022-12-11T04:00:07;51.47;;;22.53;;
20966;SDS011;10642;50.682;18.510;2022-12-11T04:02:38;53.90;;;25.47;;
20966;SDS011;10642;50.682;18.510;2022-12-11T04:05:05;52.17;;;22.00;;
20966;SDS011;10642;50.682;18.510;2022-12-11T04:07:32;57.27;;;24.13;;
20966;SDS011;10642;50.682;18.510;2022-12-11T04:09:59;51.20;;;22.07;;
20966;SDS011;10642;50.682;18.510;2022-12-11T04:12:26;50.17;;;21.90;;
20966;SDS011;10642;50.682;18.510;2022-12-11T04:14:53;57.00;;;24.07;;
20966;SDS011;10642;50.682;18.510;2022-12-11T04:17:30;59.93;;;24.97;;
20966;SDS011;10642;50.682;18.510;2022-12-11T04:20:16;53.07;;;22.97;;
20966;SDS011;10642;50.682;18.510;2022-12-11T04:23:02;52.30;;;22.80;;
20966;SDS011;10642;50.682;18.510;2022-12-11T04:25:48;49.13;;;24.83;;
20966;SDS011;10642;50.682;18.510;2022-12-11T04:28:15;53.60;;;23.83;;
20966;SDS011;10642;50.682;18.510;2022-12-11T04:30:46;49.17;;;20.97;;
20966;SDS011;10642;50.682;18.510;2022-12-11T04:33:13;42.47;;;19.20;;
20966;SDS011;10642;50.682;18.510;2022-12-11T04:35:40;39.77;;;18.27;;
20966;SDS011;10642;50.682;18.510;2022-12-11T04:38:07;44.40;;;21.40;;
20966;SDS011;10642;50.682;18.510;2022-12-11T04:40:34;42.77;;;20.63;;
20966;SDS011;10642;50.682;18.510;2022-12-11T04:43:01;47.43;;;22.40;;
20966;SDS011;10642;50.682;18.510;2022-12-11T04:45:28;46.97;;;23.70;;
20966;SDS011;10642;50.682;18.510;2022-12-11T04:47:54;48.80;;;20.80;;
20966;SDS011;10642;50.682;18.510;2022-12-11T04:50:21;51.43;;;25.97;;
20966;SDS011;10642;50.682;18.510;2022-12-11T04:52:48;51.13;;;24.80;;
20966;SDS011;10642;50.682;18.510;2022-12-11T04:55:15;50.93;;;24.23;;
20966;SDS011;10642;50.682;18.510;2022-12-11T04:57:42;52.17;;;24.20;;
20966;SDS011;10642;50.682;18.510;2022-12-11T05:00:09;51.80;;;24.87;;
20966;SDS011;10642;50.682;18.510;2022-12-11T05:02:37;47.90;;;22.93;;
20966;SDS011;10642;50.682;18.510;2022-12-11T05:05:04;48.83;;;25.63;;
20966;SDS011;10642;50.682;18.510;2022-12-11T05:07:32;44.60;;;21.07;;
20966;SDS011;10642;50.682;18.510;2022-12-11T05:09:59;47.80;;;22.90;;
20966;SDS011;10642;50.682;18.510;2022-12-11T05:12:26;47.43;;;23.50;;
20966;SDS011;10642;50.682;18.510;2022-12-11T05:14:53;48.40;;;23.63;;
20966;SDS011;10642;50.682;18.510;2022-12-11T05:17:20;53.00;;;24.63;;
20966;SDS011;10642;50.682;18.510;2022-12-11T05:19:48;47.53;;;22.70;;
20966;SDS011;10642;50.682;18.510;2022-12-11T05:22:15;60.03;;;25.60;;
20966;SDS011;10642;50.682;18.510;2022-12-11T05:24:43;62.77;;;29.57;;
20966;SDS011;10642;50.682;18.510;2022-12-11T05:27:11;65.90;;;29.87;;
20966;SDS011;10642;50.682;18.510;2022-12-11T05:29:37;59.37;;;26.00;;
20966;SDS011;10642;50.682;18.510;2022-12-11T05:32:04;61.53;;;25.60;;
20966;SDS011;10642;50.682;18.510;2022-12-11T05:34:32;65.03;;;25.40;;
20966;SDS011;10642;50.682;18.510;2022-12-11T05:36:59;65.83;;;26.20;;
20966;SDS011;10642;50.682;18.510;2022-12-11T05:39:26;66.20;;;28.30;;
20966;SDS011;10642;50.682;18.510;2022-12-11T05:41:52;64.50;;;28.23;;
20966;SDS011;10642;50.682;18.510;2022-12-11T05:44:20;67.20;;;27.00;;
20966;SDS011;10642;50.682;18.510;2022-12-11T05:46:46;61.50;;;25.57;;
20966;SDS011;10642;50.682;18.510;2022-12-11T05:49:13;70.83;;;29.73;;
20966;SDS011;10642;50.682;18.510;2022-12-11T05:51:45;66.80;;;28.77;;
20966;SDS011;10642;50.682;18.510;2022-12-11T05:54:12;66.77;;;29.93;;
20966;SDS011;10642;50.682;18.510;2022-12-11T05:56:39;65.00;;;25.07;;
20966;SDS011;10642;50.682;18.510;2022-12-11T05:59:06;67.07;;;29.33;;
20966;SDS011;10642;50.682;18.510;2022-12-11T06:01:34;59.80;;;28.33;;
20966;SDS011;10642;50.682;18.510;2022-12-11T06:04:02;59.40;;;28.80;;
20966;SDS011;10642;50.682;18.510;2022-12-11T06:06:29;57.33;;;25.83;;
20966;SDS011;10642;50.682;18.510;2022-12-11T06:08:57;61.77;;;26.93;;
20966;SDS011;10642;50.682;18.510;2022-12-11T06:11:24;62.00;;;25.40;;
20966;SDS011;10642;50.682;18.510;2022-12-11T06:13:51;63.30;;;26.97;;
20966;SDS011;10642;50.682;18.510;2022-12-11T06:16:19;61.13;;;26.83;;
20966;SDS011;10642;50.682;18.510;2022-12-11T06:18:46;56.37;;;25.87;;
20966;SDS011;10642;50.682;18.510;2022-12-11T06:21:23;53.77;;;26.13;;
20966;SDS011;10642;50.682;18.510;2022-12-11T06:23:52;58.57;;;25.57;;
20966;SDS011;10642;50.682;18.510;2022-12-11T06:26:19;64.07;;;29.43;;
20966;SDS011;10642;50.682;18.510;2022-12-11T06:28:47;56.27;;;24.87;;
20966;SDS011;10642;50.682;18.510;2022-12-11T06:31:14;58.87;;;26.20;;
20966;SDS011;10642;50.682;18.510;2022-12-11T06:33:41;56.00;;;25.40;;
20966;SDS011;10642;50.682;18.510;2022-12-11T06:36:15;54.67;;;23.20;;
20966;SDS011;10642;50.682;18.510;2022-12-11T06:38:43;55.03;;;24.00;;
20966;SDS011;10642;50.682;18.510;2022-12-11T06:41:10;57.77;;;25.60;;
20966;SDS011;10642;50.682;18.510;2022-12-11T06:43:38;51.67;;;23.73;;
20966;SDS011;10642;50.682;18.510;2022-12-11T06:46:06;52.67;;;22.97;;
20966;SDS011;10642;50.682;18.510;2022-12-11T06:48:33;49.93;;;23.67;;
20966;SDS011;10642;50.682;18.510;2022-12-11T06:51:04;56.73;;;23.83;;
20966;SDS011;10642;50.682;18.510;2022-12-11T06:53:31;57.33;;;23.00;;
20966;SDS011;10642;50.682;18.510;2022-12-11T06:56:05;54.60;;;23.87;;
20966;SDS011;10642;50.682;18.510;2022-12-11T06:58:32;49.27;;;21.77;;
20966;SDS011;10642;50.682;18.510;2022-12-11T07:00:59;52.30;;;23.67;;
20966;SDS011;10642;50.682;18.510;2022-12-11T07:03:27;50.37;;;21.73;;
20966;SDS011;10642;50.682;18.510;2022-12-11T07:05:58;51.40;;;25.13;;
20966;SDS011;10642;50.682;18.510;2022-12-11T07:08:26;52.10;;;28.00;;
20966;SDS011;10642;50.682;18.510;2022-12-11T07:10:53;50.33;;;25.90;;
20966;SDS011;10642;50.682;18.510;2022-12-11T07:13:20;57.93;;;27.80;;
20966;SDS011;10642;50.682;18.510;2022-12-11T07:15:47;50.83;;;26.33;;
20966;SDS011;10642;50.682;18.510;2022-12-11T07:18:14;51.37;;;23.83;;
20966;SDS011;10642;50.682;18.510;2022-12-11T07:20:41;49.90;;;24.37;;
20966;SDS011;10642;50.682;18.510;2022-12-11T07:23:08;50.90;;;22.63;;
20966;SDS011;10642;50.682;18.510;2022-12-11T07:25:35;53.03;;;23.70;;
20966;SDS011;10642;50.682;18.510;2022-12-11T07:28:02;46.60;;;22.37;;
20966;SDS011;10642;50.682;18.510;2022-12-11T07:30:29;46.50;;;21.97;;
20966;SDS011;10642;50.682;18.510;2022-12-11T07:32:56;43.77;;;23.40;;
20966;SDS011;10642;50.682;18.510;2022-12-11T07:35:23;48.60;;;24.53;;
20966;SDS011;10642;50.682;18.510;2022-12-11T07:37:50;50.43;;;24.83;;
20966;SDS011;10642;50.682;18.510;2022-12-11T07:40:17;48.03;;;24.40;;
20966;SDS011;10642;50.682;18.510;2022-12-11T07:42:45;51.43;;;26.03;;
20966;SDS011;10642;50.682;18.510;2022-12-11T07:45:12;51.20;;;25.30;;
20966;SDS011;10642;50.682;18.510;2022-12-11T07:47:39;53.97;;;23.13;;
20966;SDS011;10642;50.682;18.510;2022-12-11T07:50:06;50.97;;;25.10;;
20966;SDS011;10642;50.682;18.510;2022-12-11T07:52:33;50.23;;;24.03;;
20966;SDS011;10642;50.682;18.510;2022-12-11T07:55:00;56.40;;;29.67;;
20966;SDS011;10642;50.682;18.510;2022-12-11T07:57:27;59.33;;;30.50;;
20966;SDS011;10642;50.682;18.510;2022-12-11T07:59:54;64.30;;;31.40;;
20966;SDS011;10642;50.682;18.510;2022-12-11T08:02:21;64.40;;;29.73;;
20966;SDS011;10642;50.682;18.510;2022-12-11T08:04:48;62.87;;;31.30;;
20966;SDS011;10642;50.682;18.510;2022-12-11T08:07:15;65.20;;;30.90;;
20966;SDS011;10642;50.682;18.510;2022-12-11T08:09:42;70.50;;;32.63;;
20966;SDS011;10642;50.682;18.510;2022-12-11T08:12:09;58.20;;;28.67;;
20966;SDS011;10642;50.682;18.510;2022-12-11T08:14:37;68.23;;;31.67;;
20966;SDS011;10642;50.682;18.510;2022-12-11T08:17:04;94.30;;;46.60;;
20966;SDS011;10642;50.682;18.510;2022-12-11T08:19:31;72.07;;;32.87;;
20966;SDS011;10642;50.682;18.510;2022-12-11T08:21:58;72.77;;;34.13;;
20966;SDS011;10642;50.682;18.510;2022-12-11T08:24:25;70.00;;;34.80;;
20966;SDS011;10642;50.682;18.510;2022-12-11T08:26:53;72.50;;;34.37;;
20966;SDS011;10642;50.682;18.510;2022-12-11T08:29:20;69.73;;;34.60;;
20966;SDS011;10642;50.682;18.510;2022-12-11T08:31:46;64.77;;;33.07;;
20966;SDS011;10642;50.682;18.510;2022-12-11T08:34:13;63.27;;;35.27;;
20966;SDS011;10642;50.682;18.510;2022-12-11T08:36:40;62.50;;;32.47;;
20966;SDS011;10642;50.682;18.510;2022-12-11T08:39:07;62.43;;;32.63;;
20966;SDS011;10642;50.682;18.510;2022-12-11T08:41:34;67.13;;;36.07;;
20966;SDS011;10642;50.682;18.510;2022-12-11T08:44:01;61.07;;;32.13;;
20966;SDS011;10642;50.682;18.510;2022-12-11T08:46:31;62.73;;;30.97;;
20966;SDS011;10642;50.682;18.510;2022-12-11T08:48:58;60.73;;;29.97;;
20966;SDS011;10642;50.682;18.510;2022-12-11T08:51:26;55.87;;;26.43;;
20966;SDS011;10642;50.682;18.510;2022-12-11T08:53:54;56.13;;;27.30;;
20966;SDS011;10642;50.682;18.510;2022-12-11T08:56:21;58.40;;;29.37;;
20966;SDS011;10642;50.682;18.510;2022-12-11T08:58:49;56.80;;;29.77;;
20966;SDS011;10642;50.682;18.510;2022-12-11T09:01:20;53.50;;;26.90;;
20966;SDS011;10642;50.682;18.510;2022-12-11T09:03:48;53.23;;;28.20;;
20966;SDS011;10642;50.682;18.510;2022-12-11T09:06:16;60.10;;;29.53;;
20966;SDS011;10642;50.682;18.510;2022-12-11T09:08:44;52.77;;;26.43;;
20966;SDS011;10642;50.682;18.510;2022-12-11T09:11:19;55.20;;;27.37;;
20966;SDS011;10642;50.682;18.510;2022-12-11T09:13:46;56.90;;;28.50;;
20966;SDS011;10642;50.682;18.510;2022-12-11T09:16:14;50.93;;;25.63;;
20966;SDS011;10642;50.682;18.510;2022-12-11T09:18:41;58.40;;;28.57;;
20966;SDS011;10642;50.682;18.510;2022-12-11T09:21:11;54.33;;;27.97;;
20966;SDS011;10642;50.682;18.510;2022-12-11T09:23:42;53.43;;;26.40;;
20966;SDS011;10642;50.682;18.510;2022-12-11T09:26:10;52.27;;;27.50;;
20966;SDS011;10642;50.682;18.510;2022-12-11T09:28:37;54.60;;;26.47;;
20966;SDS011;10642;50.682;18.510;2022-12-11T09:31:16;52.03;;;26.13;;
20966;SDS011;10642;50.682;18.510;2022-12-11T09:33:44;49.67;;;26.80;;
20966;SDS011;10642;50.682;18.510;2022-12-11T09:36:11;44.27;;;24.23;;
20966;SDS011;10642;50.682;18.510;2022-12-11T09:38:38;45.23;;;24.13;;
20966;SDS011;10642;50.682;18.510;2022-12-11T09:46:20;40.40;;;18.30;;
20966;SDS011;10642;50.682;18.510;2022-12-11T09:48:50;38.13;;;16.47;;
20966;SDS011;10642;50.682;18.510;2022-12-11T09:51:23;34.67;;;16.83;;
20966;SDS011;10642;50.682;18.510;2022-12-11T09:53:53;32.83;;;16.20;;
20966;SDS011;10642;50.682;18.510;2022-12-11T09:56:21;39.50;;;17.13;;
20966;SDS011;10642;50.682;18.510;2022-12-11T10:01:22;36.27;;;16.37;;
20966;SDS011;10642;50.682;18.510;2022-12-11T10:04:08;37.00;;;17.63;;
20966;SDS011;10642;50.682;18.510;2022-12-11T10:06:37;35.77;;;16.53;;
20966;SDS011;10642;50.682;18.510;2022-12-11T10:14:35;39.43;;;18.67;;
20966;SDS011;10642;50.682;18.510;2022-12-11T10:22:40;35.73;;;16.30;;
20966;SDS011;10642;50.682;18.510;2022-12-11T10:25:09;39.03;;;17.77;;
20966;SDS011;10642;50.682;18.510;2022-12-11T10:27:39;33.90;;;15.07;;
20966;SDS011;10642;50.682;18.510;2022-12-11T10:35:23;39.80;;;16.03;;
20966;SDS011;10642;50.682;18.510;2022-12-11T10:37:54;34.43;;;16.57;;
20966;SDS011;10642;50.682;18.510;2022-12-11T10:40:23;32.37;;;16.50;;
20966;SDS011;10642;50.682;18.510;2022-12-11T10:42:51;38.40;;;17.00;;
20966;SDS011;10642;50.682;18.510;2022-12-11T10:45:19;35.90;;;17.30;;
20966;SDS011;10642;50.682;18.510;2022-12-11T10:47:46;36.90;;;16.40;;
20966;SDS011;10642;50.682;18.510;2022-12-11T10:50:23;36.30;;;16.80;;
20966;SDS011;10642;50.682;18.510;2022-12-11T10:52:50;36.37;;;17.07;;
20966;SDS011;10642;50.682;18.510;2022-12-11T10:57:45;37.43;;;17.20;;
20966;SDS011;10642;50.682;18.510;2022-12-11T11:02:54;42.83;;;17.30;;
20966;SDS011;10642;50.682;18.510;2022-12-11T11:05:29;36.97;;;17.10;;
20966;SDS011;10642;50.682;18.510;2022-12-11T11:13:19;39.47;;;17.40;;
20966;SDS011;10642;50.682;18.510;2022-12-11T11:15:46;30.97;;;15.60;;
20966;SDS011;10642;50.682;18.510;2022-12-11T11:18:20;36.73;;;16.23;;
20966;SDS011;10642;50.682;18.510;2022-12-11T11:20:50;33.23;;;15.83;;
20966;SDS011;10642;50.682;18.510;2022-12-11T11:23:18;35.97;;;17.17;;
20966;SDS011;10642;50.682;18.510;2022-12-11T11:25:54;28.83;;;13.73;;
20966;SDS011;10642;50.682;18.510;2022-12-11T11:28:26;39.37;;;21.97;;
20966;SDS011;10642;50.682;18.510;2022-12-11T11:33:23;40.37;;;21.23;;
20966;SDS011;10642;50.682;18.510;2022-12-11T11:35:52;42.87;;;22.33;;
20966;SDS011;10642;50.682;18.510;2022-12-11T11:38:21;44.83;;;23.30;;
20966;SDS011;10642;50.682;18.510;2022-12-11T11:41:07;43.77;;;26.97;;
20966;SDS011;10642;50.682;18.510;2022-12-11T11:48:45;48.60;;;24.97;;
20966;SDS011;10642;50.682;18.510;2022-12-11T11:51:33;53.23;;;26.57;;
20966;SDS011;10642;50.682;18.510;2022-12-11T11:54:02;51.97;;;25.30;;
20966;SDS011;10642;50.682;18.510;2022-12-11T11:56:35;51.10;;;26.07;;
20966;SDS011;10642;50.682;18.510;2022-12-11T11:59:18;52.00;;;28.07;;
20966;SDS011;10642;50.682;18.510;2022-12-11T12:01:47;47.70;;;25.43;;
20966;SDS011;10642;50.682;18.510;2022-12-11T12:04:15;47.40;;;25.07;;
20966;SDS011;10642;50.682;18.510;2022-12-11T12:28:02;49.87;;;23.70;;
20966;SDS011;10642;50.682;18.510;2022-12-11T12:30:35;47.13;;;25.83;;
20966;SDS011;10642;50.682;18.510;2022-12-11T12:33:20;44.60;;;25.10;;
20966;SDS011;10642;50.682;18.510;2022-12-11T12:38:29;46.83;;;23.87;;
20966;SDS011;10642;50.682;18.510;2022-12-11T12:43:58;48.43;;;25.83;;
20966;SDS011;10642;50.682;18.510;2022-12-11T12:48:55;49.80;;;27.30;;
20966;SDS011;10642;50.682;18.510;2022-12-11T12:51:22;55.17;;;28.23;;
20966;SDS011;10642;50.682;18.510;2022-12-11T12:53:58;53.90;;;26.40;;
20966;SDS011;10642;50.682;18.510;2022-12-11T12:56:26;65.93;;;33.83;;
20966;SDS011;10642;50.682;18.510;2022-12-11T12:58:54;57.20;;;29.37;;
20966;SDS011;10642;50.682;18.510;2022-12-11T13:01:22;48.60;;;26.60;;
20966;SDS011;10642;50.682;18.510;2022-12-11T13:04:00;48.57;;;24.83;;
20966;SDS011;10642;50.682;18.510;2022-12-11T13:08:54;53.17;;;29.50;;
20966;SDS011;10642;50.682;18.510;2022-12-11T13:11:29;42.80;;;24.80;;
20966;SDS011;10642;50.682;18.510;2022-12-11T13:14:06;51.57;;;27.30;;
20966;SDS011;10642;50.682;18.510;2022-12-11T13:16:41;45.27;;;24.43;;
20966;SDS011;10642;50.682;18.510;2022-12-11T13:19:43;46.67;;;23.30;;
20966;SDS011;10642;50.682;18.510;2022-12-11T13:24:48;49.93;;;24.23;;
20966;SDS011;10642;50.682;18.510;2022-12-11T13:30:04;33.87;;;20.57;;
20966;SDS011;10642;50.682;18.510;2022-12-11T13:32:31;37.97;;;22.03;;
20966;SDS011;10642;50.682;18.510;2022-12-11T13:34:59;38.33;;;20.90;;
20966;SDS011;10642;50.682;18.510;2022-12-11T13:37:37;41.73;;;21.37;;
20966;SDS011;10642;50.682;18.510;2022-12-11T13:40:19;39.47;;;19.77;;
20966;SDS011;10642;50.682;18.510;2022-12-11T13:42:48;37.93;;;20.37;;
20966;SDS011;10642;50.682;18.510;2022-12-11T13:45:21;39.10;;;20.30;;
20966;SDS011;10642;50.682;18.510;2022-12-11T13:47:48;35.50;;;20.00;;
20966;SDS011;10642;50.682;18.510;2022-12-11T13:50:37;39.30;;;21.37;;
20966;SDS011;10642;50.682;18.510;2022-12-11T13:53:02;36.30;;;18.33;;
20966;SDS011;10642;50.682;18.510;2022-12-11T13:55:32;39.47;;;20.77;;
20966;SDS011;10642;50.682;18.510;2022-12-11T13:57:59;36.10;;;19.73;;
20966;SDS011;10642;50.682;18.510;2022-12-11T14:00:27;36.10;;;18.17;;
20966;SDS011;10642;50.682;18.510;2022-12-11T14:02:56;40.23;;;21.77;;
20966;SDS011;10642;50.682;18.510;2022-12-11T14:05:24;36.83;;;19.67;;
20966;SDS011;10642;50.682;18.510;2022-12-11T14:07:52;36.53;;;20.90;;
20966;SDS011;10642;50.682;18.510;2022-12-11T14:10:24;38.57;;;21.40;;
20966;SDS011;10642;50.682;18.510;2022-12-11T14:13:04;34.50;;;19.60;;
20966;SDS011;10642;50.682;18.510;2022-12-11T14:15:32;38.43;;;20.47;;
20966;SDS011;10642;50.682;18.510;2022-12-11T14:18:00;39.50;;;19.70;;
20966;SDS011;10642;50.682;18.510;2022-12-11T14:20:31;35.83;;;19.10;;
20966;SDS011;10642;50.682;18.510;2022-12-11T14:25:31;44.10;;;26.07;;
20966;SDS011;10642;50.682;18.510;2022-12-11T14:27:59;36.63;;;22.87;;
20966;SDS011;10642;50.682;18.510;2022-12-11T14:30:27;51.00;;;29.40;;
20966;SDS011;10642;50.682;18.510;2022-12-11T14:32:56;40.93;;;22.53;;
20966;SDS011;10642;50.682;18.510;2022-12-11T14:35:27;48.47;;;29.37;;
20966;SDS011;10642;50.682;18.510;2022-12-11T14:38:03;45.30;;;26.63;;
20966;SDS011;10642;50.682;18.510;2022-12-11T14:40:36;60.10;;;37.17;;
20966;SDS011;10642;50.682;18.510;2022-12-11T14:43:07;38.30;;;22.20;;
20966;SDS011;10642;50.682;18.510;2022-12-11T14:48:03;62.53;;;37.53;;
20966;SDS011;10642;50.682;18.510;2022-12-11T14:50:40;49.70;;;29.33;;
20966;SDS011;10642;50.682;18.510;2022-12-11T14:53:12;49.00;;;27.53;;
20966;SDS011;10642;50.682;18.510;2022-12-11T14:55:39;47.37;;;28.43;;
20966;SDS011;10642;50.682;18.510;2022-12-11T14:58:20;39.70;;;22.17;;
20966;SDS011;10642;50.682;18.510;2022-12-11T15:03:24;41.83;;;23.53;;
20966;SDS011;10642;50.682;18.510;2022-12-11T15:05:56;42.20;;;21.37;;
20966;SDS011;10642;50.682;18.510;2022-12-11T15:08:27;36.03;;;19.57;;
20966;SDS011;10642;50.682;18.510;2022-12-11T15:11:06;36.23;;;21.20;;
20966;SDS011;10642;50.682;18.510;2022-12-11T15:13:35;40.80;;;20.80;;
20966;SDS011;10642;50.682;18.510;2022-12-11T15:16:03;40.50;;;20.53;;
20966;SDS011;10642;50.682;18.510;2022-12-11T15:18:34;42.70;;;21.13;;
20966;SDS011;10642;50.682;18.510;2022-12-11T15:21:02;41.47;;;22.23;;
20966;SDS011;10642;50.682;18.510;2022-12-11T15:23:33;43.27;;;24.33;;
20966;SDS011;10642;50.682;18.510;2022-12-11T15:26:03;44.80;;;23.43;;
20966;SDS011;10642;50.682;18.510;2022-12-11T15:28:31;39.60;;;23.17;;
20966;SDS011;10642;50.682;18.510;2022-12-11T15:31:00;47.43;;;23.67;;
20966;SDS011;10642;50.682;18.510;2022-12-11T15:33:28;40.30;;;24.57;;
20966;SDS011;10642;50.682;18.510;2022-12-11T15:38:28;49.73;;;26.47;;
20966;SDS011;10642;50.682;18.510;2022-12-11T15:40:55;50.40;;;31.50;;
20966;SDS011;10642;50.682;18.510;2022-12-11T15:43:23;63.13;;;30.30;;
20966;SDS011;10642;50.682;18.510;2022-12-11T15:45:50;44.40;;;24.07;;
20966;SDS011;10642;50.682;18.510;2022-12-11T15:48:17;40.27;;;24.33;;
20966;SDS011;10642;50.682;18.510;2022-12-11T15:50:44;47.30;;;25.30;;
20966;SDS011;10642;50.682;18.510;2022-12-11T15:53:11;42.87;;;25.57;;
20966;SDS011;10642;50.682;18.510;2022-12-11T15:55:38;40.27;;;22.67;;
20966;SDS011;10642;50.682;18.510;2022-12-11T15:58:07;45.43;;;28.10;;
20966;SDS011;10642;50.682;18.510;2022-12-11T16:00:35;45.30;;;24.73;;
20966;SDS011;10642;50.682;18.510;2022-12-11T16:03:02;39.40;;;20.83;;
20966;SDS011;10642;50.682;18.510;2022-12-11T16:05:29;43.87;;;23.27;;
20966;SDS011;10642;50.682;18.510;2022-12-11T16:07:56;104.67;;;49.63;;
20966;SDS011;10642;50.682;18.510;2022-12-11T16:10:25;41.90;;;27.20;;
20966;SDS011;10642;50.682;18.510;2022-12-11T16:12:52;42.37;;;23.27;;
20966;SDS011;10642;50.682;18.510;2022-12-11T16:15:25;91.07;;;43.67;;